Barnstable Municipal Boardman Polando Field
KHYA : now visible

Airfield :











YOU CAN JOIN US ON...

 
LOGIN :

Register | Disclaimer

   EN    FR    IT 

 









Legend :    VFR   Marginal VFR   IFR   Intensive IFR   Very Intensive IFR
Visi :
Ceiling :
>= 8 km
>= 3000ft
5 to 8 km
1000 to 3000 ft
1500m to 5 km
500 to 1000 ft
800 to 1500m
200 to 500 ft
< 800m
< 200 ft
Symbols :   Thunderstorms  Fog  Heavy snow  Heavy precipitations  Wind > 20 kt






- Airport Elevation : 54 ft
- IATA code : HYA


KHYA - Barnstable Municipal Boardman Polando Field

CURRENT METAR :
  • 250256Z AUTO 00000KT 10SM CLR 08/05 A3034 RMK AO2 SLP275 T00830050 50006

EXPIRED METARs :
  • 250156Z 00000KT 10SM CLR 10/05 A3035 RMK AO2 SLP277 T01000050
  • 250056Z 10003KT 10SM CLR 11/06 A3033 RMK AO2 SLP273 T01060056

TAF KHYA
Valid from the 25 at 03:00 until the 26 at 00:00 UTC


250311Z 2503/2524 00000KT P6SM SKC
FM251300 09005KT P6SM SCT250
FM251800 14006KT P6SM FEW250
KZBW FIR / North America



MET'MAP, your aeronautical weather chart ! - Copyright ORBIFLY December 2007 - Disclaimer

ORBIFLY MET'MAP TEAM :

Programming & Development : Alexandra Zaïnal
Original concept : Baudouin d'Aumeries
Technical & hardware support : Manuel Goepfert
Assistance : Marc-Olivier Méhu

Contact : metmap@orbifly.com




SOURCES & CREDITS :

   NOAA       Earth
Advisory